createdAt,value
2023-07-24T00:00:25.970Z,24.59
2023-07-24T00:03:30.507Z,24.60
2023-07-24T00:06:35.051Z,24.53
2023-07-24T00:09:39.913Z,24.42
2023-07-24T00:12:44.346Z,24.23
2023-07-24T00:15:48.911Z,24.25
2023-07-24T00:18:53.410Z,24.28
2023-07-24T00:21:58.564Z,24.35
2023-07-24T00:25:02.507Z,24.34
2023-07-24T00:28:14.349Z,24.62
2023-07-24T00:31:18.929Z,24.74
2023-07-24T00:34:23.549Z,24.88
2023-07-24T00:37:28.345Z,25.14
2023-07-24T00:40:32.796Z,25.18
2023-07-24T00:43:37.598Z,25.00
2023-07-24T00:46:42.933Z,24.93
2023-07-24T00:49:49.782Z,25.27
2023-07-24T00:52:54.442Z,26.73
2023-07-24T00:55:59.129Z,27.66
2023-07-24T00:59:07.666Z,28.21
2023-07-24T01:02:14.256Z,27.68
2023-07-24T01:05:19.897Z,27.26
2023-07-24T01:08:25.018Z,26.93
2023-07-24T01:11:38.572Z,26.59
2023-07-24T01:14:52.368Z,26.39
2023-07-24T01:18:07.860Z,26.25
2023-07-24T01:21:14.461Z,26.09
2023-07-24T01:24:36.179Z,26.34
2023-07-24T01:27:46.442Z,26.40
2023-07-24T01:30:51.031Z,26.54
2023-07-24T01:33:59.320Z,26.62
2023-07-24T01:37:04.545Z,26.57
2023-07-24T01:40:16.524Z,26.97
2023-07-24T01:43:21.024Z,27.68
2023-07-24T01:46:25.594Z,28.54
2023-07-24T01:49:30.325Z,29.43
2023-07-24T01:52:35.173Z,29.26
2023-07-24T01:55:39.924Z,28.94
2023-07-24T01:58:44.390Z,29.48
2023-07-24T02:01:49.091Z,30.10
2023-07-24T02:04:53.144Z,30.22
2023-07-24T02:07:57.780Z,30.28
2023-07-24T02:11:09.829Z,30.85
2023-07-24T02:14:18.888Z,30.55
2023-07-24T02:55:40.343Z,30.99
2023-07-24T02:58:44.933Z,31.10
2023-07-24T03:01:49.622Z,30.86
2023-07-24T03:04:53.579Z,31.03
2023-07-24T03:07:58.198Z,31.14
2023-07-24T03:11:04.286Z,31.08
2023-07-24T03:14:09.570Z,30.84
2023-07-24T03:17:16.386Z,31.01
2023-07-24T03:20:29.950Z,31.05
2023-07-24T03:23:34.824Z,31.05
2023-07-24T03:26:39.414Z,30.97
2023-07-24T03:29:43.972Z,30.98
2023-07-24T03:32:48.168Z,30.34
2023-07-24T03:35:52.993Z,30.67
2023-07-24T03:38:58.034Z,30.66
2023-07-24T03:42:04.111Z,30.59
2023-07-24T03:45:09.643Z,30.66
2023-07-24T03:48:20.104Z,30.42
2023-07-24T03:51:24.740Z,30.29
2023-07-24T03:54:28.968Z,30.02
2023-07-24T03:57:33.153Z,30.29
2023-07-24T04:00:37.697Z,30.14
2023-07-24T04:03:42.390Z,30.35
2023-07-24T04:06:49.680Z,30.46
2023-07-24T04:09:54.414Z,30.52
2023-07-24T04:12:59.288Z,30.20
2023-07-24T04:16:04.269Z,29.94
2023-07-24T04:19:09.105Z,29.77
2023-07-24T04:22:13.648Z,29.28
2023-07-24T04:25:18.534Z,29.16
2023-07-24T04:28:23.167Z,29.00
2023-07-24T04:31:27.797Z,28.85
2023-07-24T04:34:32.515Z,28.84
2023-07-24T04:37:37.396Z,29.01
2023-07-24T04:40:42.094Z,29.22
2023-07-24T04:43:46.287Z,29.37
2023-07-24T04:46:50.981Z,29.29
2023-07-24T04:49:57.125Z,29.20
2023-07-24T04:53:01.530Z,29.25
2023-07-24T04:56:06.174Z,29.07
2023-07-24T04:59:11.205Z,29.02
2023-07-24T05:02:16.094Z,28.94
2023-07-24T05:05:20.654Z,28.81
2023-07-24T05:08:25.171Z,28.57
2023-07-24T05:11:29.782Z,28.68
2023-07-24T05:14:34.026Z,28.56
2023-07-24T05:17:38.436Z,28.87
2023-07-24T05:20:50.682Z,29.07
2023-07-24T05:23:55.393Z,29.29
2023-07-24T05:26:59.770Z,29.16
2023-07-24T05:30:04.906Z,29.22
2023-07-24T05:33:10.503Z,29.30
2023-07-24T05:36:15.139Z,29.40
2023-07-24T05:39:19.581Z,29.20
2023-07-24T05:42:23.980Z,28.98
2023-07-24T05:45:29.743Z,29.05
2023-07-24T05:48:34.400Z,29.23
2023-07-24T05:51:38.989Z,29.43
2023-07-24T05:54:43.528Z,29.44
2023-07-24T05:57:48.143Z,29.30
2023-07-24T06:00:52.990Z,29.34
2023-07-24T06:03:57.081Z,29.36
2023-07-24T06:07:01.426Z,29.53
2023-07-24T06:10:06.088Z,29.44
2023-07-24T06:13:10.680Z,29.52
2023-07-24T06:16:15.933Z,29.52
2023-07-24T06:19:20.891Z,29.51
2023-07-24T06:22:25.835Z,29.54
2023-07-24T06:25:30.537Z,29.21
2023-07-24T06:28:36.240Z,29.27
2023-07-24T06:31:40.891Z,29.41
2023-07-24T06:34:56.992Z,29.34
2023-07-24T06:38:01.530Z,29.53
2023-07-24T06:41:05.825Z,29.40
2023-07-24T06:44:13.104Z,29.18
2023-07-24T06:47:17.869Z,28.94
2023-07-24T06:50:22.789Z,29.13
2023-07-24T06:53:27.290Z,29.21
2023-07-24T06:56:31.655Z,29.01
2023-07-24T06:59:36.150Z,28.70
2023-07-24T07:02:41.096Z,28.50
2023-07-24T07:05:45.562Z,28.53
2023-07-24T07:08:50.101Z,28.36
2023-07-24T07:11:54.645Z,28.23
2023-07-24T07:14:59.142Z,28.26
2023-07-24T07:18:03.588Z,28.16
2023-07-24T07:21:08.041Z,28.18
2023-07-24T07:24:12.863Z,28.17
2023-07-24T07:27:19.243Z,28.30
2023-07-24T07:30:24.042Z,28.67
2023-07-24T07:33:28.841Z,28.81
2023-07-24T07:36:33.450Z,28.75
2023-07-24T07:39:38.365Z,28.66
2023-07-24T07:42:44.833Z,28.73
2023-07-24T07:45:50.318Z,28.83
2023-07-24T07:48:54.736Z,28.96
2023-07-24T07:51:59.251Z,29.06
2023-07-24T07:55:04.630Z,29.16
2023-07-24T07:58:09.139Z,29.21
2023-07-24T08:01:13.784Z,29.38
2023-07-24T08:04:19.779Z,29.30
2023-07-24T08:07:24.649Z,29.29
2023-07-24T08:10:29.692Z,29.26
2023-07-24T08:13:34.964Z,29.41
2023-07-24T08:16:42.565Z,29.34
2023-07-24T08:19:47.136Z,29.18
2023-07-24T08:22:51.661Z,29.05
2023-07-24T08:25:58.881Z,28.83
2023-07-24T08:29:03.435Z,28.73
2023-07-24T08:32:08.102Z,28.88
2023-07-24T08:35:12.349Z,28.72
2023-07-24T08:38:16.846Z,28.94
2023-07-24T08:41:21.367Z,29.08
2023-07-24T08:44:27.565Z,29.06
2023-07-24T08:47:32.518Z,28.95
2023-07-24T08:50:38.166Z,28.77
2023-07-24T08:53:45.158Z,28.69
2023-07-24T08:56:52.209Z,28.55
2023-07-24T08:59:56.930Z,28.40
2023-07-24T09:03:01.289Z,28.15
2023-07-24T09:06:09.633Z,28.19
2023-07-24T09:09:17.899Z,28.09
2023-07-24T09:12:25.871Z,28.07
2023-07-24T09:15:30.426Z,27.99
2023-07-24T09:18:42.972Z,27.73
2023-07-24T09:21:47.824Z,27.86
2023-07-24T09:24:53.951Z,27.86
2023-07-24T09:27:59.629Z,28.01
2023-07-24T09:31:16.334Z,27.90
2023-07-24T09:34:21.310Z,27.77
2023-07-24T09:37:31.750Z,27.67
2023-07-24T09:40:49.065Z,27.55
2023-07-24T09:44:01.072Z,27.39
2023-07-24T09:47:28.896Z,27.39
2023-07-24T09:50:30.582Z,27.28
2023-07-24T09:53:35.714Z,27.05
2023-07-24T09:56:50.588Z,27.18
2023-07-24T10:00:00.743Z,27.13
2023-07-24T10:03:12.207Z,27.21
2023-07-24T10:06:18.160Z,27.11
2023-07-24T10:09:28.993Z,27.04
2023-07-24T10:12:36.149Z,26.94
2023-07-24T10:15:42.071Z,26.75
2023-07-24T10:18:48.853Z,27.00
2023-07-24T10:21:54.540Z,26.94
2023-07-24T10:24:59.302Z,26.84
2023-07-24T10:28:08.521Z,26.74
2023-07-24T10:31:22.632Z,26.83
2023-07-24T10:34:38.072Z,26.70
2023-07-24T10:37:42.787Z,26.63
2023-07-24T10:40:48.450Z,26.58
2023-07-24T10:43:54.782Z,26.48
2023-07-24T10:46:59.626Z,26.47
2023-07-24T10:50:04.634Z,26.21
2023-07-24T10:53:10.669Z,26.30
2023-07-24T10:56:16.126Z,26.28
2023-07-24T10:59:20.700Z,26.14
2023-07-24T11:02:26.071Z,26.06
2023-07-24T11:05:30.677Z,25.96
2023-07-24T11:08:38.211Z,26.01
2023-07-24T11:11:43.081Z,25.80
2023-07-24T11:15:02.718Z,25.55
2023-07-24T11:19:10.380Z,25.27
2023-07-24T11:22:41.617Z,25.61
2023-07-24T11:25:47.488Z,25.68
2023-07-24T11:28:58.102Z,25.60
2023-07-24T11:32:09.334Z,25.18
2023-07-24T11:35:16.755Z,25.44
2023-07-24T11:38:24.462Z,25.41
2023-07-24T11:41:39.644Z,25.37
2023-07-24T11:44:46.408Z,25.28
2023-07-24T11:47:57.593Z,25.28
2023-07-24T11:51:02.315Z,25.32
2023-07-24T11:54:09.311Z,25.37
2023-07-24T11:57:27.556Z,25.38
2023-07-24T12:00:37.597Z,25.37
2023-07-24T12:03:43.797Z,25.37
2023-07-24T12:06:48.656Z,25.38
2023-07-24T12:09:56.392Z,25.27
2023-07-24T12:13:06.632Z,25.13
2023-07-24T12:16:11.140Z,25.32
2023-07-24T12:19:28.959Z,24.62
2023-07-24T12:22:36.735Z,25.19
2023-07-24T12:25:40.852Z,25.32
2023-07-24T12:28:48.297Z,25.50
2023-07-24T12:31:52.458Z,25.38
2023-07-24T12:34:59.838Z,25.38
2023-07-24T12:38:13.457Z,25.44
2023-07-24T12:41:18.157Z,25.33
2023-07-24T12:44:22.535Z,25.37
2023-07-24T12:47:29.035Z,25.41
2023-07-24T12:50:36.008Z,25.41
2023-07-24T12:53:46.782Z,25.45
2023-07-24T12:56:58.787Z,25.34
2023-07-24T13:00:03.553Z,25.23
2023-07-24T13:03:11.005Z,25.25
2023-07-24T13:06:15.778Z,25.18
2023-07-24T13:09:22.156Z,25.08
2023-07-24T13:12:26.863Z,24.99
2023-07-24T13:15:33.697Z,24.91
2023-07-24T13:18:38.300Z,24.80
2023-07-24T13:21:45.690Z,24.74
2023-07-24T13:24:50.404Z,24.66
2023-07-24T13:27:55.093Z,24.57
2023-07-24T13:30:59.809Z,24.52
2023-07-24T13:34:05.340Z,24.41
2023-07-24T13:37:15.805Z,24.32
2023-07-24T13:40:20.675Z,24.36
2023-07-24T13:43:25.275Z,24.22
2023-07-24T13:46:29.845Z,24.15
2023-07-24T13:49:35.553Z,24.05
2023-07-24T13:52:40.321Z,24.07
2023-07-24T13:55:44.430Z,23.96
2023-07-24T13:58:49.311Z,23.95
2023-07-24T14:01:54.127Z,24.16
2023-07-24T14:05:00.409Z,24.25
2023-07-24T14:08:10.373Z,24.15
2023-07-24T14:11:15.701Z,24.14
2023-07-24T14:14:21.319Z,24.15
2023-07-24T14:17:26.239Z,24.14
2023-07-24T14:20:31.439Z,24.13
2023-07-24T14:23:35.925Z,24.09
2023-07-24T14:26:40.617Z,24.12
2023-07-24T14:29:45.229Z,24.18
2023-07-24T14:32:51.449Z,24.20
2023-07-24T14:35:58.717Z,24.18
2023-07-24T14:39:29.438Z,23.94
2023-07-24T14:42:34.303Z,24.07
2023-07-24T14:45:39.194Z,23.86
2023-07-24T14:48:43.762Z,23.97
2023-07-24T14:51:48.449Z,24.00
2023-07-24T14:54:53.010Z,24.02
2023-07-24T14:57:58.076Z,23.98
2023-07-24T15:01:02.449Z,23.78
2023-07-24T15:04:06.770Z,23.90
2023-07-24T15:07:11.254Z,23.88
2023-07-24T15:10:15.907Z,23.88
2023-07-24T15:13:20.457Z,23.88
2023-07-24T15:16:25.251Z,23.88
2023-07-24T15:19:29.926Z,23.80
2023-07-24T15:22:34.604Z,23.72
2023-07-24T15:25:39.227Z,23.84
2023-07-24T15:28:45.650Z,23.84
2023-07-24T15:31:50.194Z,23.77
2023-07-24T15:34:56.917Z,23.82
2023-07-24T15:38:06.359Z,23.66
2023-07-24T15:41:14.104Z,23.85
2023-07-24T15:44:20.686Z,23.68
2023-07-24T15:47:28.034Z,23.75
2023-07-24T15:50:36.715Z,23.74
2023-07-24T15:53:41.314Z,23.66
2023-07-24T15:56:46.013Z,23.66
2023-07-24T15:59:53.102Z,23.60
2023-07-24T16:02:59.107Z,23.58
2023-07-24T16:06:03.701Z,23.61
2023-07-24T16:09:11.307Z,23.57
2023-07-24T16:12:18.936Z,23.63
2023-07-24T16:18:40.359Z,23.62
2023-07-24T16:21:48.485Z,23.58
2023-07-24T16:25:00.168Z,23.55
2023-07-24T16:28:10.171Z,23.51
2023-07-24T16:31:16.522Z,23.65
2023-07-24T16:37:30.503Z,23.76
2023-07-24T16:40:35.246Z,23.73
2023-07-24T16:43:39.781Z,23.74
2023-07-24T16:46:44.611Z,23.72
2023-07-24T16:49:49.096Z,23.70
2023-07-24T16:52:53.666Z,23.65
2023-07-24T16:55:58.299Z,23.39
2023-07-24T16:59:03.020Z,23.51
2023-07-24T17:02:07.896Z,23.64
2023-07-24T17:05:12.664Z,23.64
2023-07-24T17:08:17.468Z,23.70
2023-07-24T17:11:22.029Z,23.66
2023-07-24T17:14:26.429Z,23.68
2023-07-24T17:17:30.973Z,23.68
2023-07-24T17:20:35.594Z,23.75
2023-07-24T17:23:40.346Z,23.76
2023-07-24T17:26:44.965Z,23.67
2023-07-24T17:29:52.742Z,23.72
2023-07-24T17:32:59.421Z,23.68
2023-07-24T17:36:04.094Z,23.65
2023-07-24T17:39:08.815Z,23.64
2023-07-24T17:42:22.615Z,23.60
2023-07-24T17:45:27.163Z,23.61
2023-07-24T17:48:31.858Z,23.53
2023-07-24T17:51:36.478Z,23.50
2023-07-24T17:54:43.944Z,23.41
2023-07-24T17:57:51.369Z,23.47
2023-07-24T18:00:55.877Z,23.53
2023-07-24T18:04:01.358Z,23.54
2023-07-24T18:07:06.261Z,23.58
2023-07-24T18:10:11.525Z,23.55
2023-07-24T18:13:16.687Z,23.60
2023-07-24T18:16:21.456Z,23.64
2023-07-24T18:19:25.868Z,23.50
2023-07-24T18:22:30.753Z,23.58
2023-07-24T18:25:35.042Z,23.42
2023-07-24T18:28:39.549Z,23.58
2023-07-24T18:31:44.216Z,23.58
2023-07-24T18:34:48.925Z,23.59
2023-07-24T18:37:53.738Z,23.54
2023-07-24T18:41:01.432Z,23.44
2023-07-24T18:44:06.990Z,23.45
2023-07-24T18:47:12.405Z,23.47
2023-07-24T18:50:17.016Z,23.29
2023-07-24T18:53:22.772Z,23.24
2023-07-24T18:56:29.936Z,23.39
2023-07-24T18:59:34.547Z,23.40
2023-07-24T19:02:39.652Z,23.36
2023-07-24T19:05:44.366Z,23.11
2023-07-24T19:08:52.062Z,23.23
2023-07-24T19:11:57.748Z,23.17
2023-07-24T19:15:02.305Z,23.16
2023-07-24T19:18:09.937Z,23.12
2023-07-24T19:21:14.616Z,22.95
2023-07-24T19:24:19.330Z,23.13
2023-07-24T19:27:24.611Z,23.05
2023-07-24T19:30:29.349Z,23.04
2023-07-24T19:33:34.124Z,22.98
2023-07-24T19:36:39.458Z,22.90
2023-07-24T19:39:43.843Z,22.97
2023-07-24T19:42:48.837Z,22.93
2023-07-24T19:45:54.393Z,22.94
2023-07-24T19:49:01.339Z,22.97
2023-07-24T19:52:06.901Z,22.78
2023-07-24T19:55:12.451Z,22.79
2023-07-24T19:58:31.227Z,22.88
2023-07-24T20:01:39.104Z,22.77
2023-07-24T20:04:43.470Z,22.86
2023-07-24T20:07:48.301Z,22.83
2023-07-24T20:10:54.561Z,22.83
2023-07-24T20:13:59.572Z,22.81
2023-07-24T20:17:04.242Z,22.82
2023-07-24T20:20:09.510Z,22.67
2023-07-24T20:23:14.816Z,22.80
2023-07-24T20:26:20.341Z,22.83
2023-07-24T20:29:25.380Z,22.90
2023-07-24T20:32:31.496Z,22.93
2023-07-24T20:35:36.528Z,22.97
2023-07-24T20:38:40.867Z,22.87
2023-07-24T20:41:46.985Z,22.83
2023-07-24T20:44:55.005Z,23.07
2023-07-24T20:48:00.568Z,23.16
2023-07-24T20:51:05.075Z,23.23
2023-07-24T20:54:10.099Z,23.32
2023-07-24T20:57:14.454Z,23.35
2023-07-24T21:00:19.232Z,23.47
2023-07-24T21:03:24.135Z,23.41
2023-07-24T21:06:29.062Z,23.50
2023-07-24T21:09:33.395Z,23.40
2023-07-24T21:12:41.375Z,23.41
2023-07-24T21:15:45.827Z,23.58
2023-07-24T21:18:53.843Z,23.58
2023-07-24T21:21:58.203Z,23.65
2023-07-24T21:25:02.716Z,23.74
2023-07-24T21:28:08.386Z,23.75
2023-07-24T21:31:14.608Z,23.75
2023-07-24T21:34:20.079Z,23.84
2023-07-24T21:37:24.779Z,23.90
2023-07-24T21:40:29.778Z,24.08
2023-07-24T21:43:34.486Z,24.22
2023-07-24T21:46:39.752Z,24.32
2023-07-24T21:49:44.218Z,24.34
2023-07-24T21:52:51.815Z,24.41
2023-07-24T21:55:56.932Z,24.62
2023-07-24T21:59:01.584Z,24.70
2023-07-24T22:02:06.575Z,24.85
2023-07-24T22:05:10.994Z,24.80
2023-07-24T22:08:15.091Z,24.90
2023-07-24T22:11:19.685Z,24.89
2023-07-24T22:14:24.306Z,25.09
2023-07-24T22:17:29.821Z,25.22
2023-07-24T22:20:40.864Z,25.57
2023-07-24T22:23:49.004Z,26.79
2023-07-24T22:26:53.472Z,27.83
2023-07-24T22:29:57.913Z,28.88
2023-07-24T22:33:06.841Z,30.26
2023-07-24T22:36:11.833Z,29.60
2023-07-24T22:39:17.453Z,29.20
2023-07-24T22:42:22.390Z,30.24
2023-07-24T22:45:27.004Z,31.22
2023-07-24T22:48:31.652Z,32.91
2023-07-24T22:51:36.606Z,33.54
2023-07-24T22:54:41.314Z,33.51
2023-07-24T22:57:45.995Z,34.00
2023-07-24T23:00:50.252Z,35.35
2023-07-24T23:03:54.486Z,36.20
2023-07-24T23:06:59.244Z,37.12
2023-07-24T23:10:03.993Z,37.05
2023-07-24T23:13:08.970Z,36.46
2023-07-24T23:16:15.114Z,36.79
2023-07-24T23:19:19.112Z,37.36
2023-07-24T23:22:23.860Z,36.96
2023-07-24T23:25:28.377Z,37.50
2023-07-24T23:28:33.330Z,36.42
2023-07-24T23:31:38.041Z,36.60
2023-07-24T23:34:42.504Z,37.26
2023-07-24T23:37:47.090Z,37.94
2023-07-24T23:41:01.306Z,38.01
2023-07-24T23:44:06.290Z,38.65
2023-07-24T23:47:11.093Z,38.91
2023-07-24T23:50:16.565Z,39.02
2023-07-24T23:53:21.398Z,39.05
2023-07-24T23:56:26.111Z,39.23
2023-07-24T23:59:31.214Z,39.34
